Accueil
METAR-TAF:

METAR-TAF

Aéroports :

Aéroport de Baie-Comeau

Baie-Comeau, Québec, Canada

latitude: 49-08N, longitude: 068-12W, altitude: 21 m

Observation

Le bulletin a été fait il y a 51 minutes, à 00:00 UTC
Vent 4 kt de nord/nord-ouest, variant entre nord-ouest et nord/nord-est
Température 13°C
Humidité 30%
Pression 1006 hPa
Visibilité: 14.5 km
Ciel clair

METAR: CYBC 030000Z AUTO 34004KT 320V020 9SM CLR 13/M04 A2972 RMK SLP065 DENSITY ALT 100FT

Heure: 20:51 (00:51 UTC)

Prévision

Le bulletin a été fait il y a 5 heures et 13 minutes, à 19:38 UTC
Prévision valable du 02 à 20 UTC au 03 à 08 UTC
Vent 12 kt de nord/nord-ouest
Visibilité: 10 km
Quelques nuages à une hauteur de 7000 ft
Evoluant progressivement
du 02 à 23 UTC au 03 à 01 UTC
Vent 8 kt de nord/nord-ouest

TAF: CYBC 021938Z 0220/0308 33012KT P6SM FEW070 BECMG 0223/0301 33008KT RMK FCST BASED ON AUTO OBS. NXT FCST BY 030200Z

Observations et prévisions météorologiques de plus de 4000 aéroports (messages METAR et TAF).

Les stations disponibles sont représentées par des disques jaunes et rouges sur la carte.

Passer la souris dessus pour voir le nom de la station.

Cliquer dessus pour voir les observations et prévisions météorologiques.

Pour changer de carte: cliquez sur les boutons verts avec une croix noire pour zoomer, sur le bouton vert avec un tiret pour effectuer un zoom arrière, ou sur les flèches vertes pour les cartes adjacentes.


METAR-TAF: